sensor_id;sensor_type;location;lat;lon;timestamp;P1;durP1;ratioP1;P2;durP2;ratioP2
70165;SDS011;57541;47.408;18.822;2023-07-31T07:35:15;5.22;;;1.90;;
70165;SDS011;57541;47.408;18.822;2023-07-31T07:35:46;7.00;;;2.20;;
70165;SDS011;57541;47.408;18.822;2023-07-31T07:36:17;4.28;;;1.90;;
70165;SDS011;57541;47.408;18.822;2023-07-31T07:36:48;5.70;;;1.95;;
70165;SDS011;57541;47.408;18.822;2023-07-31T07:37:19;5.55;;;2.00;;
70165;SDS011;57541;47.408;18.822;2023-07-31T07:37:50;4.78;;;2.30;;
70165;SDS011;57541;47.408;18.822;2023-07-31T07:38:23;5.22;;;2.03;;
70165;SDS011;57541;47.408;18.822;2023-07-31T07:38:54;6.78;;;1.83;;
70165;SDS011;57541;47.408;18.822;2023-07-31T07:39:25;4.53;;;1.83;;
70165;SDS011;57541;47.408;18.822;2023-07-31T07:39:57;5.30;;;2.00;;
70165;SDS011;57541;47.408;18.822;2023-07-31T07:40:29;6.45;;;1.90;;
70165;SDS011;57541;47.408;18.822;2023-07-31T07:41:01;5.10;;;1.60;;
70165;SDS011;57541;47.408;18.822;2023-07-31T07:41:32;4.60;;;1.75;;
70165;SDS011;57541;47.408;18.822;2023-07-31T07:42:04;4.13;;;1.50;;
70165;SDS011;57541;47.408;18.822;2023-07-31T07:42:36;6.17;;;2.07;;
70165;SDS011;57541;47.408;18.822;2023-07-31T07:43:07;4.80;;;1.60;;
70165;SDS011;57541;47.408;18.822;2023-07-31T07:43:39;6.13;;;1.90;;
70165;SDS011;57541;47.408;18.822;2023-07-31T07:44:11;5.40;;;2.17;;
70165;SDS011;57541;47.408;18.822;2023-07-31T07:44:42;5.28;;;1.98;;
70165;SDS011;57541;47.408;18.822;2023-07-31T07:45:14;4.88;;;1.75;;
70165;SDS011;57541;47.408;18.822;2023-07-31T07:45:46;5.00;;;1.70;;
70165;SDS011;57541;47.408;18.822;2023-07-31T07:46:18;5.47;;;1.50;;
70165;SDS011;57541;47.408;18.822;2023-07-31T07:46:49;5.63;;;1.67;;
70165;SDS011;57541;47.408;18.822;2023-07-31T07:47:21;4.68;;;1.63;;
70165;SDS011;57541;47.408;18.822;2023-07-31T07:47:53;6.07;;;2.33;;
70165;SDS011;57541;47.408;18.822;2023-07-31T07:48:25;5.38;;;1.65;;
70165;SDS011;57541;47.408;18.822;2023-07-31T07:48:56;5.88;;;1.80;;
70165;SDS011;57541;47.408;18.822;2023-07-31T07:49:28;4.53;;;1.77;;
70165;SDS011;57541;47.408;18.822;2023-07-31T07:50:00;4.15;;;1.50;;
70165;SDS011;57541;47.408;18.822;2023-07-31T07:50:31;6.57;;;1.90;;
70165;SDS011;57541;47.408;18.822;2023-07-31T07:51:04;7.57;;;1.80;;
70165;SDS011;57541;47.408;18.822;2023-07-31T07:51:35;5.13;;;1.70;;
70165;SDS011;57541;47.408;18.822;2023-07-31T07:52:08;4.15;;;1.70;;
70165;SDS011;57541;47.408;18.822;2023-07-31T07:52:40;7.38;;;1.80;;
70165;SDS011;57541;47.408;18.822;2023-07-31T07:53:11;4.03;;;1.50;;
70165;SDS011;57541;47.408;18.822;2023-07-31T07:53:43;5.45;;;1.40;;
70165;SDS011;57541;47.408;18.822;2023-07-31T07:54:15;5.57;;;1.40;;
70165;SDS011;57541;47.408;18.822;2023-07-31T07:54:48;5.32;;;1.83;;
70165;SDS011;57541;47.408;18.822;2023-07-31T07:55:20;5.93;;;1.60;;
70165;SDS011;57541;47.408;18.822;2023-07-31T07:55:51;5.70;;;1.20;;
70165;SDS011;57541;47.408;18.822;2023-07-31T07:56:23;4.57;;;1.50;;
70165;SDS011;57541;47.408;18.822;2023-07-31T07:56:57;4.85;;;1.70;;
70165;SDS011;57541;47.408;18.822;2023-07-31T07:57:29;4.07;;;1.63;;
70165;SDS011;57541;47.408;18.822;2023-07-31T07:58:01;5.50;;;1.80;;
70165;SDS011;57541;47.408;18.822;2023-07-31T07:58:32;6.63;;;1.67;;
70165;SDS011;57541;47.408;18.822;2023-07-31T07:59:04;4.30;;;1.70;;
70165;SDS011;57541;47.408;18.822;2023-07-31T07:59:36;5.60;;;1.77;;
70165;SDS011;57541;47.408;18.822;2023-07-31T08:00:07;4.07;;;1.52;;
70165;SDS011;57541;47.408;18.822;2023-07-31T08:00:41;5.00;;;1.60;;
70165;SDS011;57541;47.408;18.822;2023-07-31T08:01:19;5.97;;;1.45;;
70165;SDS011;57541;47.408;18.822;2023-07-31T08:01:51;4.47;;;1.40;;
70165;SDS011;57541;47.408;18.822;2023-07-31T08:02:23;4.47;;;1.50;;
70165;SDS011;57541;47.408;18.822;2023-07-31T08:02:55;5.82;;;1.58;;
70165;SDS011;57541;47.408;18.822;2023-07-31T08:03:28;7.30;;;1.58;;
70165;SDS011;57541;47.408;18.822;2023-07-31T08:04:00;4.70;;;1.37;;
70165;SDS011;57541;47.408;18.822;2023-07-31T08:04:32;5.20;;;1.33;;
70165;SDS011;57541;47.408;18.822;2023-07-31T08:05:04;5.50;;;1.50;;
70165;SDS011;57541;47.408;18.822;2023-07-31T08:05:36;6.75;;;1.50;;
70165;SDS011;57541;47.408;18.822;2023-07-31T08:06:08;5.38;;;1.58;;
70165;SDS011;57541;47.408;18.822;2023-07-31T08:06:40;5.40;;;1.67;;
70165;SDS011;57541;47.408;18.822;2023-07-31T08:07:13;5.80;;;1.80;;
70165;SDS011;57541;47.408;18.822;2023-07-31T08:07:44;5.10;;;1.55;;
70165;SDS011;57541;47.408;18.822;2023-07-31T08:08:16;5.07;;;1.45;;
70165;SDS011;57541;47.408;18.822;2023-07-31T08:08:48;4.72;;;1.60;;
70165;SDS011;57541;47.408;18.822;2023-07-31T08:09:20;5.83;;;1.57;;
70165;SDS011;57541;47.408;18.822;2023-07-31T08:09:52;4.88;;;1.60;;
70165;SDS011;57541;47.408;18.822;2023-07-31T08:10:23;6.00;;;1.52;;
70165;SDS011;57541;47.408;18.822;2023-07-31T08:10:55;4.63;;;1.50;;
70165;SDS011;57541;47.408;18.822;2023-07-31T08:11:27;5.78;;;1.50;;
70165;SDS011;57541;47.408;18.822;2023-07-31T08:11:59;5.75;;;1.83;;
70165;SDS011;57541;47.408;18.822;2023-07-31T08:12:34;4.70;;;1.80;;
70165;SDS011;57541;47.408;18.822;2023-07-31T08:13:05;4.63;;;1.60;;
70165;SDS011;57541;47.408;18.822;2023-07-31T08:13:37;6.40;;;1.50;;
70165;SDS011;57541;47.408;18.822;2023-07-31T08:14:09;6.97;;;2.00;;
70165;SDS011;57541;47.408;18.822;2023-07-31T08:14:41;6.30;;;1.70;;
70165;SDS011;57541;47.408;18.822;2023-07-31T08:15:13;5.65;;;2.00;;
70165;SDS011;57541;47.408;18.822;2023-07-31T08:15:44;4.57;;;1.55;;
70165;SDS011;57541;47.408;18.822;2023-07-31T08:16:16;5.30;;;1.90;;
70165;SDS011;57541;47.408;18.822;2023-07-31T08:16:48;5.32;;;1.65;;
70165;SDS011;57541;47.408;18.822;2023-07-31T08:17:19;5.25;;;2.03;;
70165;SDS011;57541;47.408;18.822;2023-07-31T08:17:51;4.43;;;1.73;;
70165;SDS011;57541;47.408;18.822;2023-07-31T08:18:23;6.97;;;1.75;;
70165;SDS011;57541;47.408;18.822;2023-07-31T08:18:55;6.20;;;1.65;;
70165;SDS011;57541;47.408;18.822;2023-07-31T08:19:27;4.80;;;1.50;;
70165;SDS011;57541;47.408;18.822;2023-07-31T08:19:58;6.03;;;1.73;;
70165;SDS011;57541;47.408;18.822;2023-07-31T08:20:30;5.55;;;1.70;;
70165;SDS011;57541;47.408;18.822;2023-07-31T08:21:02;7.15;;;1.55;;
70165;SDS011;57541;47.408;18.822;2023-07-31T08:21:34;4.53;;;1.42;;
70165;SDS011;57541;47.408;18.822;2023-07-31T08:22:05;5.68;;;1.52;;
70165;SDS011;57541;47.408;18.822;2023-07-31T08:22:37;6.65;;;1.77;;
70165;SDS011;57541;47.408;18.822;2023-07-31T08:23:09;4.38;;;1.42;;
70165;SDS011;57541;47.408;18.822;2023-07-31T08:23:41;5.53;;;1.67;;
70165;SDS011;57541;47.408;18.822;2023-07-31T08:24:12;5.82;;;1.70;;
70165;SDS011;57541;47.408;18.822;2023-07-31T08:24:44;5.30;;;1.67;;
70165;SDS011;57541;47.408;18.822;2023-07-31T08:25:16;5.77;;;1.47;;
70165;SDS011;57541;47.408;18.822;2023-07-31T08:25:47;4.85;;;1.80;;
70165;SDS011;57541;47.408;18.822;2023-07-31T08:26:21;6.18;;;1.55;;
70165;SDS011;57541;47.408;18.822;2023-07-31T08:26:52;5.07;;;1.83;;
70165;SDS011;57541;47.408;18.822;2023-07-31T08:27:24;7.38;;;1.48;;
70165;SDS011;57541;47.408;18.822;2023-07-31T08:27:55;5.25;;;1.75;;
70165;SDS011;57541;47.408;18.822;2023-07-31T08:28:27;5.82;;;1.70;;
70165;SDS011;57541;47.408;18.822;2023-07-31T08:28:59;5.43;;;1.40;;
70165;SDS011;57541;47.408;18.822;2023-07-31T08:29:31;5.07;;;1.70;;
70165;SDS011;57541;47.408;18.822;2023-07-31T08:30:02;5.18;;;1.65;;
70165;SDS011;57541;47.408;18.822;2023-07-31T08:30:34;5.03;;;1.70;;
70165;SDS011;57541;47.408;18.822;2023-07-31T08:31:06;5.22;;;1.60;;
70165;SDS011;57541;47.408;18.822;2023-07-31T08:31:38;4.32;;;1.30;;
70165;SDS011;57541;47.408;18.822;2023-07-31T08:32:09;5.03;;;1.55;;
70165;SDS011;57541;47.408;18.822;2023-07-31T08:32:41;5.53;;;1.60;;
70165;SDS011;57541;47.408;18.822;2023-07-31T08:33:13;6.10;;;1.35;;
70165;SDS011;57541;47.408;18.822;2023-07-31T08:33:44;7.15;;;1.60;;
70165;SDS011;57541;47.408;18.822;2023-07-31T08:34:16;3.88;;;1.45;;
70165;SDS011;57541;47.408;18.822;2023-07-31T08:34:48;4.65;;;1.60;;
70165;SDS011;57541;47.408;18.822;2023-07-31T08:35:20;4.95;;;1.40;;
70165;SDS011;57541;47.408;18.822;2023-07-31T08:35:52;5.20;;;1.70;;
70165;SDS011;57541;47.408;18.822;2023-07-31T08:36:23;4.68;;;1.35;;
70165;SDS011;57541;47.408;18.822;2023-07-31T08:36:59;4.72;;;1.45;;
70165;SDS011;57541;47.408;18.822;2023-07-31T08:37:31;6.28;;;2.00;;
70165;SDS011;57541;47.408;18.822;2023-07-31T08:38:02;6.05;;;1.60;;
70165;SDS011;57541;47.408;18.822;2023-07-31T08:38:34;5.00;;;1.30;;
70165;SDS011;57541;47.408;18.822;2023-07-31T08:39:06;6.75;;;2.60;;
70165;SDS011;57541;47.408;18.822;2023-07-31T08:39:37;5.43;;;1.55;;
70165;SDS011;57541;47.408;18.822;2023-07-31T08:40:11;5.10;;;1.70;;
70165;SDS011;57541;47.408;18.822;2023-07-31T08:40:43;7.30;;;1.50;;
70165;SDS011;57541;47.408;18.822;2023-07-31T08:41:14;6.80;;;1.73;;
70165;SDS011;57541;47.408;18.822;2023-07-31T08:41:48;5.28;;;1.20;;
70165;SDS011;57541;47.408;18.822;2023-07-31T08:42:20;5.32;;;1.60;;
70165;SDS011;57541;47.408;18.822;2023-07-31T08:42:53;5.38;;;1.75;;
70165;SDS011;57541;47.408;18.822;2023-07-31T08:43:26;4.80;;;1.40;;
70165;SDS011;57541;47.408;18.822;2023-07-31T08:43:58;6.50;;;2.00;;
70165;SDS011;57541;47.408;18.822;2023-07-31T08:44:31;5.75;;;1.23;;
70165;SDS011;57541;47.408;18.822;2023-07-31T08:45:03;4.88;;;1.30;;
70165;SDS011;57541;47.408;18.822;2023-07-31T08:45:36;5.43;;;2.08;;
70165;SDS011;57541;47.408;18.822;2023-07-31T08:46:08;7.07;;;1.95;;
70165;SDS011;57541;47.408;18.822;2023-07-31T08:46:40;8.90;;;2.20;;
70165;SDS011;57541;47.408;18.822;2023-07-31T08:47:13;5.35;;;1.30;;
70165;SDS011;57541;47.408;18.822;2023-07-31T08:47:48;7.43;;;1.63;;
70165;SDS011;57541;47.408;18.822;2023-07-31T08:48:22;5.78;;;1.55;;
70165;SDS011;57541;47.408;18.822;2023-07-31T08:48:55;6.80;;;1.30;;
70165;SDS011;57541;47.408;18.822;2023-07-31T08:49:26;6.38;;;1.60;;
70165;SDS011;57541;47.408;18.822;2023-07-31T08:49:58;5.85;;;1.75;;
70165;SDS011;57541;47.408;18.822;2023-07-31T08:50:31;4.03;;;1.60;;
70165;SDS011;57541;47.408;18.822;2023-07-31T08:51:03;4.57;;;1.50;;
70165;SDS011;57541;47.408;18.822;2023-07-31T08:51:34;6.65;;;1.50;;
70165;SDS011;57541;47.408;18.822;2023-07-31T08:52:07;4.27;;;1.60;;
70165;SDS011;57541;47.408;18.822;2023-07-31T08:52:39;5.88;;;1.52;;
70165;SDS011;57541;47.408;18.822;2023-07-31T08:53:11;4.82;;;1.30;;
70165;SDS011;57541;47.408;18.822;2023-07-31T08:53:43;5.88;;;1.50;;
70165;SDS011;57541;47.408;18.822;2023-07-31T08:54:14;4.93;;;1.30;;
70165;SDS011;57541;47.408;18.822;2023-07-31T08:54:46;5.93;;;1.83;;
70165;SDS011;57541;47.408;18.822;2023-07-31T08:55:18;13.38;;;2.25;;
70165;SDS011;57541;47.408;18.822;2023-07-31T08:55:54;7.70;;;1.70;;
70165;SDS011;57541;47.408;18.822;2023-07-31T08:56:29;6.13;;;1.85;;
70165;SDS011;57541;47.408;18.822;2023-07-31T08:57:03;6.32;;;1.30;;
70165;SDS011;57541;47.408;18.822;2023-07-31T08:57:36;6.17;;;1.57;;
70165;SDS011;57541;47.408;18.822;2023-07-31T08:58:08;4.85;;;1.50;;
70165;SDS011;57541;47.408;18.822;2023-07-31T08:58:43;9.77;;;1.83;;
70165;SDS011;57541;47.408;18.822;2023-07-31T08:59:16;7.68;;;1.48;;
70165;SDS011;57541;47.408;18.822;2023-07-31T08:59:49;7.20;;;1.67;;
70165;SDS011;57541;47.408;18.822;2023-07-31T09:00:22;5.10;;;1.88;;
70165;SDS011;57541;47.408;18.822;2023-07-31T09:00:57;13.73;;;2.53;;
70165;SDS011;57541;47.408;18.822;2023-07-31T09:01:30;3.90;;;1.60;;
70165;SDS011;57541;47.408;18.822;2023-07-31T09:02:07;10.18;;;2.13;;
70165;SDS011;57541;47.408;18.822;2023-07-31T09:02:49;4.70;;;1.65;;
70165;SDS011;57541;47.408;18.822;2023-07-31T09:03:24;5.30;;;1.47;;
70165;SDS011;57541;47.408;18.822;2023-07-31T09:03:58;5.00;;;1.70;;
70165;SDS011;57541;47.408;18.822;2023-07-31T09:04:32;6.55;;;1.92;;
70165;SDS011;57541;47.408;18.822;2023-07-31T09:05:08;5.25;;;1.80;;
70165;SDS011;57541;47.408;18.822;2023-07-31T09:05:43;5.18;;;1.70;;
70165;SDS011;57541;47.408;18.822;2023-07-31T09:06:16;4.82;;;1.50;;
70165;SDS011;57541;47.408;18.822;2023-07-31T09:06:52;6.38;;;2.25;;
70165;SDS011;57541;47.408;18.822;2023-07-31T09:07:28;6.72;;;2.10;;
70165;SDS011;57541;47.408;18.822;2023-07-31T09:08:02;5.53;;;2.15;;
70165;SDS011;57541;47.408;18.822;2023-07-31T09:08:36;5.45;;;1.90;;
70165;SDS011;57541;47.408;18.822;2023-07-31T09:09:13;5.50;;;2.10;;
70165;SDS011;57541;47.408;18.822;2023-07-31T09:09:45;5.05;;;1.98;;
70165;SDS011;57541;47.408;18.822;2023-07-31T09:10:17;7.03;;;2.40;;
70165;SDS011;57541;47.408;18.822;2023-07-31T09:10:49;5.75;;;2.13;;
70165;SDS011;57541;47.408;18.822;2023-07-31T09:11:21;5.75;;;2.10;;
70165;SDS011;57541;47.408;18.822;2023-07-31T09:11:53;5.53;;;2.20;;
70165;SDS011;57541;47.408;18.822;2023-07-31T09:12:27;10.43;;;2.30;;
70165;SDS011;57541;47.408;18.822;2023-07-31T09:12:59;5.65;;;2.08;;
70165;SDS011;57541;47.408;18.822;2023-07-31T09:13:31;5.75;;;2.47;;
70165;SDS011;57541;47.408;18.822;2023-07-31T09:14:03;5.97;;;2.38;;
70165;SDS011;57541;47.408;18.822;2023-07-31T09:14:40;5.83;;;2.53;;
70165;SDS011;57541;47.408;18.822;2023-07-31T09:15:13;5.18;;;2.30;;
70165;SDS011;57541;47.408;18.822;2023-07-31T09:16:02;12.43;;;2.35;;
70165;SDS011;57541;47.408;18.822;2023-07-31T09:16:34;6.03;;;2.13;;
70165;SDS011;57541;47.408;18.822;2023-07-31T09:17:06;6.68;;;2.40;;
70165;SDS011;57541;47.408;18.822;2023-07-31T09:17:38;4.28;;;2.03;;
70165;SDS011;57541;47.408;18.822;2023-07-31T09:18:09;5.18;;;2.20;;
70165;SDS011;57541;47.408;18.822;2023-07-31T09:18:54;5.55;;;2.28;;
70165;SDS011;57541;47.408;18.822;2023-07-31T09:19:34;7.95;;;2.53;;
70165;SDS011;57541;47.408;18.822;2023-07-31T09:20:13;5.13;;;2.55;;
70165;SDS011;57541;47.408;18.822;2023-07-31T09:20:46;4.37;;;1.90;;
70165;SDS011;57541;47.408;18.822;2023-07-31T09:21:31;5.53;;;2.13;;
70165;SDS011;57541;47.408;18.822;2023-07-31T09:22:04;5.72;;;2.50;;
70165;SDS011;57541;47.408;18.822;2023-07-31T09:22:36;6.65;;;2.30;;
70165;SDS011;57541;47.408;18.822;2023-07-31T09:23:12;5.90;;;2.25;;
70165;SDS011;57541;47.408;18.822;2023-07-31T09:23:46;6.38;;;2.30;;
70165;SDS011;57541;47.408;18.822;2023-07-31T09:24:29;5.28;;;2.47;;
70165;SDS011;57541;47.408;18.822;2023-07-31T09:25:21;6.25;;;2.42;;
70165;SDS011;57541;47.408;18.822;2023-07-31T09:25:57;4.72;;;2.60;;
70165;SDS011;57541;47.408;18.822;2023-07-31T09:26:35;6.20;;;2.45;;
70165;SDS011;57541;47.408;18.822;2023-07-31T09:27:08;4.53;;;2.03;;
70165;SDS011;57541;47.408;18.822;2023-07-31T09:27:47;5.65;;;2.55;;
70165;SDS011;57541;47.408;18.822;2023-07-31T09:28:20;5.32;;;2.30;;
70165;SDS011;57541;47.408;18.822;2023-07-31T09:29:05;4.75;;;2.50;;
70165;SDS011;57541;47.408;18.822;2023-07-31T09:29:39;6.78;;;2.85;;
70165;SDS011;57541;47.408;18.822;2023-07-31T09:30:11;5.18;;;2.38;;
70165;SDS011;57541;47.408;18.822;2023-07-31T09:30:44;6.03;;;2.53;;
70165;SDS011;57541;47.408;18.822;2023-07-31T09:31:33;5.65;;;2.60;;
70165;SDS011;57541;47.408;18.822;2023-07-31T09:32:15;6.28;;;3.40;;
70165;SDS011;57541;47.408;18.822;2023-07-31T09:32:49;4.50;;;2.10;;
70165;SDS011;57541;47.408;18.822;2023-07-31T09:33:21;4.80;;;2.00;;
70165;SDS011;57541;47.408;18.822;2023-07-31T09:33:54;5.13;;;2.28;;
70165;SDS011;57541;47.408;18.822;2023-07-31T09:34:30;5.15;;;2.65;;
70165;SDS011;57541;47.408;18.822;2023-07-31T09:35:20;5.03;;;2.95;;
70165;SDS011;57541;47.408;18.822;2023-07-31T09:35:52;6.43;;;2.35;;
70165;SDS011;57541;47.408;18.822;2023-07-31T09:36:23;5.47;;;2.20;;
70165;SDS011;57541;47.408;18.822;2023-07-31T09:36:57;5.35;;;2.20;;
70165;SDS011;57541;47.408;18.822;2023-07-31T09:37:32;4.00;;;1.75;;
70165;SDS011;57541;47.408;18.822;2023-07-31T09:38:04;5.32;;;2.70;;
70165;SDS011;57541;47.408;18.822;2023-07-31T09:38:37;5.20;;;2.15;;
70165;SDS011;57541;47.408;18.822;2023-07-31T09:39:10;4.70;;;2.27;;
70165;SDS011;57541;47.408;18.822;2023-07-31T09:39:46;8.15;;;2.33;;
70165;SDS011;57541;47.408;18.822;2023-07-31T09:40:38;5.43;;;2.92;;
70165;SDS011;57541;47.408;18.822;2023-07-31T09:41:11;8.85;;;2.53;;
70165;SDS011;57541;47.408;18.822;2023-07-31T09:41:43;5.88;;;2.35;;
70165;SDS011;57541;47.408;18.822;2023-07-31T09:42:24;7.05;;;2.22;;
70165;SDS011;57541;47.408;18.822;2023-07-31T09:42:57;7.35;;;2.50;;
70165;SDS011;57541;47.408;18.822;2023-07-31T09:43:30;5.15;;;2.33;;
70165;SDS011;57541;47.408;18.822;2023-07-31T09:44:02;6.93;;;2.60;;
70165;SDS011;57541;47.408;18.822;2023-07-31T09:44:38;5.80;;;2.15;;
70165;SDS011;57541;47.408;18.822;2023-07-31T09:45:12;5.17;;;2.17;;
70165;SDS011;57541;47.408;18.822;2023-07-31T09:45:54;6.95;;;2.70;;
70165;SDS011;57541;47.408;18.822;2023-07-31T09:46:28;5.03;;;2.47;;
70165;SDS011;57541;47.408;18.822;2023-07-31T09:47:01;6.38;;;2.55;;
70165;SDS011;57541;47.408;18.822;2023-07-31T09:47:33;6.38;;;2.90;;
70165;SDS011;57541;47.408;18.822;2023-07-31T09:48:12;5.35;;;2.60;;
70165;SDS011;57541;47.408;18.822;2023-07-31T09:48:47;5.47;;;2.60;;
70165;SDS011;57541;47.408;18.822;2023-07-31T09:49:19;6.25;;;2.50;;
70165;SDS011;57541;47.408;18.822;2023-07-31T09:49:51;5.28;;;2.47;;
70165;SDS011;57541;47.408;18.822;2023-07-31T09:50:24;4.72;;;2.03;;
70165;SDS011;57541;47.408;18.822;2023-07-31T09:50:56;7.13;;;2.63;;
70165;SDS011;57541;47.408;18.822;2023-07-31T09:51:38;4.78;;;2.40;;
70165;SDS011;57541;47.408;18.822;2023-07-31T09:52:12;5.22;;;2.08;;
70165;SDS011;57541;47.408;18.822;2023-07-31T09:52:45;5.25;;;2.70;;
70165;SDS011;57541;47.408;18.822;2023-07-31T09:53:16;4.60;;;2.38;;
70165;SDS011;57541;47.408;18.822;2023-07-31T09:53:49;6.47;;;2.30;;
70165;SDS011;57541;47.408;18.822;2023-07-31T09:54:21;4.97;;;1.92;;
70165;SDS011;57541;47.408;18.822;2023-07-31T09:54:53;4.88;;;2.28;;
70165;SDS011;57541;47.408;18.822;2023-07-31T09:55:25;4.97;;;2.55;;
70165;SDS011;57541;47.408;18.822;2023-07-31T09:56:00;5.55;;;2.47;;
70165;SDS011;57541;47.408;18.822;2023-07-31T09:56:33;4.87;;;2.43;;
70165;SDS011;57541;47.408;18.822;2023-07-31T09:57:05;5.18;;;2.50;;
70165;SDS011;57541;47.408;18.822;2023-07-31T09:57:42;6.82;;;2.83;;
70165;SDS011;57541;47.408;18.822;2023-07-31T09:58:16;4.63;;;2.50;;
70165;SDS011;57541;47.408;18.822;2023-07-31T09:58:48;4.78;;;2.13;;
70165;SDS011;57541;47.408;18.822;2023-07-31T09:59:20;7.10;;;2.45;;
70165;SDS011;57541;47.408;18.822;2023-07-31T09:59:55;5.72;;;2.72;;
70165;SDS011;57541;47.408;18.822;2023-07-31T10:00:27;4.55;;;2.53;;
70165;SDS011;57541;47.408;18.822;2023-07-31T10:01:01;6.90;;;2.50;;
70165;SDS011;57541;47.408;18.822;2023-07-31T10:01:33;5.47;;;2.10;;
70165;SDS011;57541;47.408;18.822;2023-07-31T10:02:05;6.17;;;2.07;;
70165;SDS011;57541;47.408;18.822;2023-07-31T10:02:45;5.03;;;2.20;;
70165;SDS011;57541;47.408;18.822;2023-07-31T10:03:18;4.10;;;2.15;;
70165;SDS011;57541;47.408;18.822;2023-07-31T10:03:51;4.68;;;2.50;;
70165;SDS011;57541;47.408;18.822;2023-07-31T10:04:24;5.57;;;2.10;;
70165;SDS011;57541;47.408;18.822;2023-07-31T10:04:59;4.40;;;2.40;;
70165;SDS011;57541;47.408;18.822;2023-07-31T10:05:35;5.82;;;2.67;;
70165;SDS011;57541;47.408;18.822;2023-07-31T10:06:34;5.53;;;2.40;;
70165;SDS011;57541;47.408;18.822;2023-07-31T10:07:06;4.30;;;2.40;;
70165;SDS011;57541;47.408;18.822;2023-07-31T10:07:39;7.00;;;2.50;;
70165;SDS011;57541;47.408;18.822;2023-07-31T10:08:27;14.53;;;2.40;;
70165;SDS011;57541;47.408;18.822;2023-07-31T10:09:01;5.35;;;2.15;;
70165;SDS011;57541;47.408;18.822;2023-07-31T10:09:36;4.60;;;2.38;;
70165;SDS011;57541;47.408;18.822;2023-07-31T10:10:08;4.68;;;2.10;;
70165;SDS011;57541;47.408;18.822;2023-07-31T10:10:41;7.15;;;2.70;;
70165;SDS011;57541;47.408;18.822;2023-07-31T10:11:14;5.30;;;2.33;;
70165;SDS011;57541;47.408;18.822;2023-07-31T10:11:50;8.30;;;2.55;;
70165;SDS011;57541;47.408;18.822;2023-07-31T10:12:27;4.80;;;2.28;;
70165;SDS011;57541;47.408;18.822;2023-07-31T10:12:59;6.28;;;2.40;;
70165;SDS011;57541;47.408;18.822;2023-07-31T10:13:33;5.95;;;2.45;;
70165;SDS011;57541;47.408;18.822;2023-07-31T10:14:05;5.33;;;2.30;;
70165;SDS011;57541;47.408;18.822;2023-07-31T10:14:39;5.82;;;2.35;;
70165;SDS011;57541;47.408;18.822;2023-07-31T10:15:12;5.35;;;2.50;;
70165;SDS011;57541;47.408;18.822;2023-07-31T10:15:45;5.82;;;2.50;;
70165;SDS011;57541;47.408;18.822;2023-07-31T10:16:18;5.85;;;2.40;;
70165;SDS011;57541;47.408;18.822;2023-07-31T10:16:50;6.20;;;2.50;;
70165;SDS011;57541;47.408;18.822;2023-07-31T10:17:24;4.30;;;2.20;;
70165;SDS011;57541;47.408;18.822;2023-07-31T10:17:57;5.20;;;2.58;;
70165;SDS011;57541;47.408;18.822;2023-07-31T10:18:30;5.93;;;2.30;;
70165;SDS011;57541;47.408;18.822;2023-07-31T10:19:02;4.82;;;2.30;;
70165;SDS011;57541;47.408;18.822;2023-07-31T10:19:34;5.00;;;2.60;;
70165;SDS011;57541;47.408;18.822;2023-07-31T10:20:07;6.53;;;2.50;;
70165;SDS011;57541;47.408;18.822;2023-07-31T10:20:39;5.45;;;2.63;;
70165;SDS011;57541;47.408;18.822;2023-07-31T10:21:11;5.10;;;2.45;;
70165;SDS011;57541;47.408;18.822;2023-07-31T10:21:43;4.72;;;2.20;;
70165;SDS011;57541;47.408;18.822;2023-07-31T10:22:16;4.90;;;2.63;;
70165;SDS011;57541;47.408;18.822;2023-07-31T10:22:49;5.50;;;2.50;;
70165;SDS011;57541;47.408;18.822;2023-07-31T10:23:23;4.80;;;2.22;;
70165;SDS011;57541;47.408;18.822;2023-07-31T10:23:56;4.88;;;2.42;;
70165;SDS011;57541;47.408;18.822;2023-07-31T10:24:29;4.63;;;2.03;;
70165;SDS011;57541;47.408;18.822;2023-07-31T10:25:01;5.53;;;2.70;;
70165;SDS011;57541;47.408;18.822;2023-07-31T10:25:33;4.70;;;1.95;;
70165;SDS011;57541;47.408;18.822;2023-07-31T10:26:05;5.28;;;2.20;;
70165;SDS011;57541;47.408;18.822;2023-07-31T10:26:39;6.25;;;2.50;;
70165;SDS011;57541;47.408;18.822;2023-07-31T10:27:12;5.70;;;2.40;;
70165;SDS011;57541;47.408;18.822;2023-07-31T10:27:43;5.57;;;2.70;;
70165;SDS011;57541;47.408;18.822;2023-07-31T10:28:18;6.57;;;2.70;;
70165;SDS011;57541;47.408;18.822;2023-07-31T10:28:50;6.68;;;2.13;;
70165;SDS011;57541;47.408;18.822;2023-07-31T10:29:24;5.32;;;2.30;;
70165;SDS011;57541;47.408;18.822;2023-07-31T10:29:57;6.07;;;2.20;;
70165;SDS011;57541;47.408;18.822;2023-07-31T10:30:32;5.50;;;2.03;;
70165;SDS011;57541;47.408;18.822;2023-07-31T10:31:04;6.53;;;1.98;;
70165;SDS011;57541;47.408;18.822;2023-07-31T10:31:37;6.07;;;2.33;;
70165;SDS011;57541;47.408;18.822;2023-07-31T10:32:09;5.05;;;2.70;;
70165;SDS011;57541;47.408;18.822;2023-07-31T10:32:43;5.15;;;2.17;;
70165;SDS011;57541;47.408;18.822;2023-07-31T10:33:16;4.95;;;2.30;;
70165;SDS011;57541;47.408;18.822;2023-07-31T10:33:49;5.07;;;2.30;;
70165;SDS011;57541;47.408;18.822;2023-07-31T10:34:21;4.00;;;2.10;;
70165;SDS011;57541;47.408;18.822;2023-07-31T10:34:53;6.25;;;2.47;;
70165;SDS011;57541;47.408;18.822;2023-07-31T10:35:25;6.85;;;2.28;;
70165;SDS011;57541;47.408;18.822;2023-07-31T10:37:12;6.28;;;2.05;;
70165;SDS011;57541;47.408;18.822;2023-07-31T10:37:52;5.35;;;2.17;;
70165;SDS011;57541;47.408;18.822;2023-07-31T10:38:25;7.20;;;2.00;;
70165;SDS011;57541;47.408;18.822;2023-07-31T10:38:57;6.50;;;2.42;;
70165;SDS011;57541;47.408;18.822;2023-07-31T10:39:35;4.20;;;2.03;;
70165;SDS011;57541;47.408;18.822;2023-07-31T10:40:42;5.15;;;1.98;;
70165;SDS011;57541;47.408;18.822;2023-07-31T10:41:14;4.80;;;1.73;;
70165;SDS011;57541;47.408;18.822;2023-07-31T10:41:46;8.25;;;2.00;;
70165;SDS011;57541;47.408;18.822;2023-07-31T10:42:18;5.30;;;2.17;;
70165;SDS011;57541;47.408;18.822;2023-07-31T10:42:51;4.72;;;1.60;;
70165;SDS011;57541;47.408;18.822;2023-07-31T10:43:24;4.55;;;1.52;;
70165;SDS011;57541;47.408;18.822;2023-07-31T10:43:59;4.05;;;1.80;;
70165;SDS011;57541;47.408;18.822;2023-07-31T10:44:31;6.45;;;1.50;;
70165;SDS011;57541;47.408;18.822;2023-07-31T10:45:04;6.15;;;1.90;;
70165;SDS011;57541;47.408;18.822;2023-07-31T10:45:38;5.90;;;2.10;;
70165;SDS011;57541;47.408;18.822;2023-07-31T10:46:11;4.95;;;1.67;;
70165;SDS011;57541;47.408;18.822;2023-07-31T10:46:45;5.50;;;1.70;;
70165;SDS011;57541;47.408;18.822;2023-07-31T10:47:17;5.32;;;1.40;;
70165;SDS011;57541;47.408;18.822;2023-07-31T10:47:49;6.73;;;1.80;;
70165;SDS011;57541;47.408;18.822;2023-07-31T10:48:21;4.85;;;2.00;;
70165;SDS011;57541;47.408;18.822;2023-07-31T10:48:57;5.18;;;1.70;;
70165;SDS011;57541;47.408;18.822;2023-07-31T10:49:32;4.93;;;1.70;;
70165;SDS011;57541;47.408;18.822;2023-07-31T10:50:50;5.28;;;1.52;;
70165;SDS011;57541;47.408;18.822;2023-07-31T10:51:23;5.28;;;1.88;;
70165;SDS011;57541;47.408;18.822;2023-07-31T10:52:03;5.55;;;1.60;;
70165;SDS011;57541;47.408;18.822;2023-07-31T10:52:35;5.15;;;1.48;;
70165;SDS011;57541;47.408;18.822;2023-07-31T10:53:07;5.75;;;1.30;;
70165;SDS011;57541;47.408;18.822;2023-07-31T10:53:58;5.40;;;1.80;;
70165;SDS011;57541;47.408;18.822;2023-07-31T10:54:41;6.60;;;1.70;;
70165;SDS011;57541;47.408;18.822;2023-07-31T10:55:59;5.22;;;1.45;;
70165;SDS011;57541;47.408;18.822;2023-07-31T10:56:12;4.20;;;1.42;;
70165;SDS011;57541;47.408;18.822;2023-07-31T10:56:45;4.72;;;1.50;;